Latest Weather Observations for Hobart

IDT60801

Issued at 9:31 am EDT Saturday 13 February 2016 (issued every 30 minutes, with the page automatically refreshed every 10 minutes)

About weather observations | Map of weather stations | Latest weather observations for TAS | Other Formats
Station Details ID: 094029 Name: HOBART (ELLERSLIE ROAD) Lat: -42.89 Lon: 147.33 Height: 50.5 m
Data from the previous 72 hours. | See also: Recent months at Hobart
Date/Time
EDT
Temp
°C
App
Temp
°C
Dew
Point
Rel
Hum
%
Delta-T
°C
Wind Press
QNH
hPa
Press
MSL
hPa
Rain
since 9 am
mm
Dir
 
Spd
km/h
Gust
km/h
Spd
kts
Gust
kts
13/09:30am 20.8 17.1 8.0 43 6.7 NNW 17 24 9 13 1004.6 1004.5 0.0
13/09:00am 19.3 16.0 8.1 48 5.8 NNW 15 22 8 12 1005.2 1005.1 0.2
13/08:30am 18.8 15.7 8.7 52 5.3 NW 15 20 8 11 1005.1 1005.0 0.2
13/08:00am 18.8 15.1 7.9 49 5.6 NW 17 24 9 13 1005.1 1005.0 0.2
13/07:30am 19.0 14.9 8.0 49 5.7 NNW 19 26 10 14 1004.7 1004.6 0.2
13/07:00am 18.8 14.8 8.2 50 5.5 WNW 19 24 10 13 1004.9 1004.8 0.2
13/06:30am 18.5 14.8 8.0 50 5.4 WNW 17 24 9 13 1004.4 1004.3 0.2
13/06:00am 18.4 14.8 8.4 52 5.2 NW 17 24 9 13 1004.0 1003.9 0.2
13/05:30am 18.4 14.2 8.4 52 5.2 NW 20 32 11 17 1003.9 1003.8 0.2
13/05:00am 18.5 14.4 8.0 50 5.4 NW 19 24 10 13 1004.5 1004.4 0.2
13/04:30am 17.9 16.2 8.4 53 4.9 NW 7 15 4 8 1005.0 1004.9 0.2
13/04:00am 18.1 16.9 8.2 52 5.1 WNW 4 9 2 5 1005.5 1005.4 0.2
13/03:30am 18.4 16.8 8.1 51 5.3 NNW 6 7 3 4 1005.6 1005.5 0.2
13/03:00am 18.6 16.5 8.1 50 5.4 NNW 9 15 5 8 1005.9 1005.8 0.2
13/02:30am 19.3 17.5 8.1 48 5.8 NW 7 13 4 7 1006.6 1006.5 0.2
13/02:00am 20.1 16.9 6.7 41 6.8 N 13 17 7 9 1006.8 1006.7 0.2
13/01:30am 20.4 16.8 6.9 41 6.9 N 15 19 8 10 1007.1 1007.0 0.2
13/01:00am 20.8 17.0 7.4 42 6.9 NNW 17 26 9 14 1007.3 1007.2 0.2
13/12:30am 21.4 17.0 7.3 40 7.3 NNW 20 28 11 15 1007.5 1007.4 0.2
13/12:00am 21.9 17.5 7.2 38 7.6 NNW 20 37 11 20 1007.6 1007.5 0.2
 
Date/Time
EDT
Temp
°C
App
Temp
°C
Dew
Point
Rel
Hum
%
Delta-T
°C
Wind Press
QNH
hPa
Press
MSL
hPa
Rain
since 9 am
mm
Dir
 
Spd
km/h
Gust
km/h
Spd
kts
Gust
kts
12/11:30pm 22.5 16.0 6.5 35 8.2 NNW 30 39 16 21 1007.9 1007.8 0.2
12/11:00pm 23.1 17.1 5.2 31 9.0 NNW 26 37 14 20 1008.2 1008.2 0.2
12/10:31pm 23.4 16.9 6.3 33 8.8 NNW 30 52 16 28 1008.4 1008.4 0.2
12/10:30pm 23.5 16.9 6.1 32 8.9 NNW 30 41 16 22 1008.4 1008.4 0.2
12/10:00pm 23.8 17.9 7.4 35 8.6 NNW 28 43 15 23 1008.5 1008.5 0.2
12/09:30pm 23.6 19.9 7.9 36 8.3 WNW 17 35 9 19 1008.6 1008.6 0.2
12/09:00pm 22.3 22.5 14.3 60 4.7 NNW 6 11 3 6 1008.7 1008.7 0.2
12/08:30pm 22.3 22.3 15.1 63 4.3 E 9 19 5 10 1008.9 1008.9 0.2
12/08:00pm 22.5 23.1 15.3 63 4.3 NNW 6 7 3 4 1009.1 1009.1 0.2
12/07:30pm 22.7 23.0 15.0 61 4.6 WNW 7 15 4 8 1009.2 1009.2 0.2
12/07:00pm 23.5 21.3 14.4 56 5.4 NE 19 28 10 15 1009.4 1009.4 0.2
12/06:30pm 24.1 21.8 14.1 53 5.9 NE 19 30 10 16 1009.6 1009.6 0.2
12/06:00pm 24.8 22.3 13.6 49 6.6 NE 19 30 10 16 1009.8 1009.8 0.2
12/05:30pm 25.1 22.9 13.3 48 6.9 NE 17 24 9 13 1010.2 1010.2 0.2
12/05:00pm 25.5 22.8 12.8 45 7.4 ENE 19 28 10 15 1010.4 1010.3 0.2
12/04:30pm 24.7 22.6 14.7 53 6.0 SE 19 28 10 15 1011.0 1010.9 0.2
12/04:00pm 23.8 20.8 14.7 56 5.4 ESE 24 33 13 18 1011.8 1011.7 0.2
12/03:30pm 23.3 20.6 14.5 57 5.2 ESE 22 30 12 16 1012.6 1012.5 0.2
12/03:00pm 24.1 21.7 14.5 55 5.7 SE 20 28 11 15 1013.0 1012.9 0.2
12/02:30pm 23.3 20.3 13.7 54 5.6 SE 22 28 12 15 1013.3 1013.2 0.2
12/02:00pm 23.8 21.1 11.6 46 6.9 SE 17 20 9 11 1013.7 1013.6 0.2
12/01:30pm 23.8 21.6 12.0 47 6.7 E 15 22 8 12 1014.2 1014.1 0.2
12/01:00pm 23.3 21.2 11.3 46 6.7 ENE 13 22 7 12 1014.9 1014.8 0.2
12/12:30pm 24.0 22.5 11.8 46 6.9 N 11 17 6 9 1015.7 1015.6 0.2
12/12:00pm 23.1 21.8 12.4 51 6.1 NNE 11 15 6 8 1016.3 1016.2 0.2
12/11:30am 21.5 19.3 12.1 55 5.3 NE 15 20 8 11 1016.7 1016.6 0.2
12/11:00am 20.3 18.4 11.9 58 4.7 N 13 20 7 11 1017.4 1017.3 0.2
12/10:30am 19.9 17.7 12.0 60 4.4 NE 15 19 8 10 1017.5 1017.4 0.0
12/10:00am 19.5 17.4 12.5 64 3.9 NE 15 19 8 10 1017.9 1017.8 0.0
12/09:30am 18.8 17.6 12.7 67 3.4 NE 11 17 6 9 1018.3 1018.2 0.0
12/09:00am 17.8 16.2 12.8 72 2.8 NE 13 17 7 9 1018.4 1018.3 0.0
12/08:30am 16.7 16.8 12.7 77 2.2 ENE 4 9 2 5 1018.5 1018.4 0.0
12/08:00am 16.1 16.9 12.7 80 1.9 CALM 0 0 0 0 1018.3 1018.2 0.0
12/07:30am 15.9 16.0 12.6 81 1.8 WSW 4 9 2 5 1018.2 1018.1 0.0
12/07:00am 15.7 15.4 12.6 82 1.7 WSW 6 9 3 5 1017.8 1017.7 0.0
12/06:30am 15.7 16.5 12.6 82 1.7 CALM 0 0 0 0 1017.7 1017.6 0.0
12/06:00am 15.8 16.2 12.5 81 1.8 NE 2 6 1 3 1017.6 1017.5 0.0
12/05:30am 15.8 15.4 12.3 80 1.9 ENE 6 9 3 5 1017.5 1017.4 0.0
12/05:00am 15.4 15.8 12.5 83 1.6 SW 2 6 1 3 1017.6 1017.5 0.0
12/04:30am 15.5 15.9 12.6 83 1.6 WSW 2 6 1 3 1017.6 1017.5 0.0
12/04:00am 15.5 16.3 12.6 83 1.6 CALM 0 0 0 0 1018.0 1017.9 0.0
12/03:30am 15.4 15.1 12.7 84 1.5 WSW 6 7 3 4 1018.1 1018.0 0.0
12/03:00am 15.3 14.8 12.8 85 1.4 WSW 7 11 4 6 1018.1 1018.0 0.0
12/02:30am 15.2 14.4 12.8 85 1.3 W 9 9 5 5 1018.4 1018.3 0.0
12/02:00am 15.1 13.5 12.9 87 1.2 WSW 13 17 7 9 1018.6 1018.5 0.0
12/01:30am 14.9 13.7 12.9 88 1.1 WSW 11 15 6 8 1018.8 1018.7 0.0
12/01:00am 15.2 14.4 12.8 85 1.3 WSW 9 13 5 7 1018.9 1018.8 0.0
12/12:30am 16.1 14.8 11.3 73 2.6 W 9 13 5 7 1019.1 1019.0 0.0
12/12:00am 16.1 14.0 11.3 73 2.6 WSW 13 17 7 9 1019.0 1018.9 0.0
 
Date/Time
EDT
Temp
°C
App
Temp
°C
Dew
Point
Rel
Hum
%
Delta-T
°C
Wind Press
QNH
hPa
Press
MSL
hPa
Rain
since 9 am
mm
Dir
 
Spd
km/h
Gust
km/h
Spd
kts
Gust
kts
11/11:30pm 16.3 15.0 11.3 72 2.7 SSW 9 13 5 7 1019.2 1019.1 0.0
11/11:00pm 16.5 15.0 10.7 68 3.1 SSW 9 15 5 8 1019.1 1019.0 0.0
11/10:30pm 16.5 13.8 10.5 67 3.2 S 15 20 8 11 1019.2 1019.1 0.0
11/10:00pm 16.8 14.5 10.4 66 3.4 SSE 13 20 7 11 1019.2 1019.1 0.0
11/09:30pm 16.8 13.7 10.2 65 3.5 S 17 22 9 12 1018.9 1018.8 0.0
11/09:00pm 17.0 13.9 10.2 64 3.6 SSE 17 22 9 12 1018.5 1018.4 0.0
11/08:30pm 17.0 14.6 10.0 63 3.7 SSE 13 20 7 11 1018.3 1018.2 0.0
11/08:00pm 17.0 13.8 10.0 63 3.7 SSE 17 26 9 14 1018.0 1017.9 0.0
11/07:30pm 17.2 14.1 10.2 63 3.7 S 17 24 9 13 1017.7 1017.6 0.0
11/07:00pm 17.5 13.9 9.9 61 4.0 SSE 19 24 10 13 1017.3 1017.2 0.0
11/06:30pm 17.5 13.7 9.7 60 4.1 SSE 20 28 11 15 1017.2 1017.1 0.0
11/06:00pm 17.7 13.4 9.5 58 4.3 SE 22 32 12 17 1017.0 1016.9 0.0
11/05:30pm 18.1 13.4 9.3 56 4.6 SSE 24 33 13 18 1016.8 1016.7 0.0
11/05:00pm 18.7 13.3 9.4 54 4.9 SE 28 37 15 20 1016.7 1016.6 0.0
11/04:30pm 18.7 12.9 9.6 55 4.8 SE 30 37 16 20 1016.6 1016.5 0.0
11/04:00pm 19.2 14.0 10.3 56 4.8 SE 28 39 15 21 1016.4 1016.3 0.0
11/03:30pm 20.7 16.5 9.9 50 5.8 SSE 22 30 12 16 1016.4 1016.3 0.0
11/03:00pm 19.9 15.3 9.6 51 5.5 SSE 24 33 13 18 1016.3 1016.2 0.0
11/02:30pm 19.8 14.6 10.1 53 5.2 SE 28 35 15 19 1016.3 1016.2 0.0
11/02:00pm 20.4 15.6 10.2 52 5.5 SE 26 35 14 19 1016.4 1016.3 0.0
11/01:30pm 20.2 15.9 9.3 49 5.8 SE 22 30 12 16 1016.3 1016.2 0.0
11/01:00pm 20.5 16.4 8.7 46 6.2 SE 20 28 11 15 1016.2 1016.1 0.0
11/12:30pm 21.0 17.5 8.7 45 6.5 SE 17 22 9 12 1016.3 1016.2 0.0
11/12:00pm 20.5 17.7 8.7 46 6.2 ESE 13 19 7 10 1016.5 1016.4 0.0
11/11:30am 19.3 16.8 9.7 53 5.1 ESE 13 17 7 9 1016.6 1016.5 0.0
11/11:00am 20.0 18.1 10.4 54 5.2 NE 11 17 6 9 1016.7 1016.6 0.0
11/10:30am 18.2 16.8 9.7 57 4.5 NE 7 15 4 8 1016.8 1016.7 0.0
11/10:00am 18.2 17.3 10.8 62 4.0 SSE 6 9 3 5 1017.0 1016.9 0.0
11/09:30am 17.2 16.0 11.7 70 3.0 SE 9 13 5 7 1016.7 1016.6 0.0
11/09:00am 18.5 17.7 11.6 64 3.8 NE 7 15 4 8 1016.4 1016.3 0.0
11/08:30am 17.8 17.0 11.6 67 3.4 NNW 7 9 4 5 1016.2 1016.1 0.0
11/08:00am 16.5 15.1 12.1 75 2.4 NNW 11 13 6 7 1015.9 1015.8 0.0
11/07:30am 15.8 15.4 12.5 81 1.8 NW 6 11 3 6 1015.6 1015.5 0.0
11/07:00am 14.2 12.7 11.8 85 1.3 W 11 15 6 8 1015.3 1015.2 0.0
11/06:30am 13.9 13.2 11.9 88 1.1 W 7 13 4 7 1015.0 1014.9 0.0
11/06:00am 14.3 13.3 12.3 88 1.1 WSW 9 13 5 7 1014.6 1014.5 0.0
11/05:30am 14.4 13.5 12.6 89 1.0 WSW 9 13 5 7 1014.5 1014.4 0.0
11/05:00am 15.0 14.7 12.8 87 1.2 NW 6 9 3 5 1014.1 1014.0 0.0
11/04:30am 15.4 15.6 12.9 85 1.4 WNW 4 9 2 5 1014.1 1014.0 0.0
11/04:00am 15.6 16.1 12.9 84 1.5 N 2 7 1 4 1013.9 1013.8 0.0
11/03:30am 16.1 15.8 12.7 80 1.9 SSE 6 9 3 5 1013.8 1013.7 0.0
11/03:00am 16.2 15.7 12.6 79 2.0 SSW 7 11 4 6 1014.0 1013.9 0.0
11/02:30am 16.2 15.7 12.8 80 1.9 S 7 9 4 5 1013.9 1013.8 0.0
11/02:00am 16.3 15.5 12.9 80 1.9 SSW 9 13 5 7 1014.0 1013.9 0.0
11/01:30am 16.4 15.1 13.6 83 1.6 E 13 19 7 10 1014.0 1013.9 0.0
11/01:00am 16.7 15.4 12.5 76 2.3 SE 11 19 6 10 1013.8 1013.7 0.0
11/12:30am 16.7 14.4 13.1 79 2.0 ESE 17 22 9 12 1013.8 1013.7 0.0
11/12:00am 17.2 15.1 13.7 80 2.0 ESE 17 24 9 13 1013.6 1013.5 0.0
 
Date/Time
EDT
Temp
°C
App
Temp
°C
Dew
Point
Rel
Hum
%
Delta-T
°C
Wind Press
QNH
hPa
Press
MSL
hPa
Rain
since 9 am
mm
Dir
 
Spd
km/h
Gust
km/h
Spd
kts
Gust
kts
10/11:30pm 19.1 17.1 10.2 56 4.8 WNW 11 17 6 9 1013.2 1013.1 0.0
10/11:00pm 18.6 17.7 10.6 59 4.3 WSW 6 7 3 4 1013.1 1013.0 0.0
10/10:30pm 18.5 16.9 10.3 59 4.4 W 9 11 5 6 1013.1 1013.0 0.0
10/10:00pm 18.7 17.9 11.0 61 4.2 NW 6 9 3 5 1012.9 1012.8 0.0
10/09:30pm 19.5 18.8 10.2 55 5.0 W 4 9 2 5 1012.8 1012.7 0.0
10/09:00pm 19.6 17.9 9.9 53 5.2 SW 9 13 5 7 1012.5 1012.4 0.0
10/08:30pm 20.1 19.5 10.3 53 5.3 W 4 6 2 3 1012.2 1012.1 0.0
10/08:00pm 21.3 19.1 9.4 46 6.4 NW 11 17 6 9 1011.8 1011.7 0.0
10/07:30pm 21.6 20.2 9.0 44 6.7 WNW 6 13 3 7 1011.6 1011.5 0.0
10/07:00pm 22.3 19.3 9.1 43 7.1 NW 15 22 8 12 1011.3 1011.2 0.0
10/06:30pm 23.0 19.1 8.6 39 7.7 NW 19 26 10 14 1011.1 1011.0 0.0
10/06:00pm 23.5 19.5 8.3 37 8.1 NW 19 28 10 15 1011.0 1010.9 0.0
10/05:30pm 22.3 18.3 9.1 43 7.1 WSW 20 32 11 17 1010.9 1010.8 0.0
10/05:00pm 22.2 19.6 9.4 44 6.9 NE 13 24 7 13 1010.8 1010.7 0.0
10/04:30pm 23.5 20.2 8.0 37 8.2 ESE 15 22 8 12 1010.7 1010.6 0.0
10/04:00pm 23.4 21.1 8.9 39 7.8 E 11 19 6 10 1010.9 1010.8 0.0
10/03:30pm 22.7 19.7 9.1 42 7.3 E 15 20 8 11 1011.1 1011.0 0.0
10/03:00pm 23.8 21.0 8.5 37 8.2 S 13 19 7 10 1011.1 1011.0 0.0
10/02:30pm 22.0 19.9 9.6 45 6.7 S 11 20 6 11 1011.5 1011.4 0.0
10/02:00pm 21.9 20.1 9.5 45 6.7 ENE 9 15 5 8 1011.5 1011.4 0.0
10/01:30pm 21.8 18.4 9.1 44 6.8 SE 17 20 9 11 1011.5 1011.4 0.0
10/01:00pm 21.1 18.2 8.3 43 6.7 E 13 19 7 10 1011.7 1011.6 0.0
10/12:30pm 21.3 17.3 8.4 43 6.8 SSE 19 24 10 13 1012.2 1012.1 0.0
10/12:15pm 22.5 19.2 8.1 39 7.6 S 15 41 8 22 1012.2 1012.1 0.0
10/12:00pm 21.2 18.4 8.7 44 6.6 E 13 17 7 9 1012.7 1012.6 0.0
10/11:30am 20.8 18.4 8.7 45 6.4 NNE 11 19 6 10 1012.9 1012.8 0.0
10/11:00am 20.7 18.2 8.3 45 6.5 N 11 19 6 10 1013.3 1013.2 0.0
10/10:30am 19.8 17.4 8.5 48 5.9 N 11 19 6 10 1013.3 1013.2 0.0
10/10:00am 19.1 16.3 8.5 50 5.5 NNW 13 20 7 11 1013.4 1013.3 0.0

Other Formats:

Comma delimited format used in spreadsheet applications
http://www.bom.gov.au/fwo/IDT60801/IDT60801.94970.axf

JavaScript Object Notation format (JSON) in row-major order
http://www.bom.gov.au/fwo/IDT60801/IDT60801.94970.json